Time;durP1;ratioP1;P1;durP2;ratioP2;P2;SDS_P1;SDS_P2;PMS_P1;PMS_P2;Temp;Humidity;BMP_temperature;BMP_pressure;BME280_temperature;BME280_humidity;BME280_pressure;Samples;Min_cycle;Max_cycle;Signal;HPM_P1;HPM_P2
2022/04/25 00:00:54;;;;;;;;;;;;;;;10.49;68.13;91630.78;2055378;69;20085;-68
2022/04/25 00:03:19;;;;;;;;;;;;;;;10.41;67.94;91634.72;2055228;69;20070;-68
2022/04/25 00:05:45;;;;;;;;;;;;;;;10.40;69.42;91636.06;2055443;69;20046;-68
2022/04/25 00:08:11;;;;;;;;;;;;;;;10.25;69.63;91633.25;2055322;69;20054;-68
2022/04/25 00:10:36;;;;;;;;;;;;;;;10.39;66.56;91631.06;2055371;70;20051;-68
2022/04/25 00:13:02;;;;;;;;;;;;;;;10.36;68.01;91632.34;2055442;70;20050;-68
2022/04/25 00:15:28;;;;;;;;;;;;;;;10.50;65.25;91629.44;2055700;69;20065;-68
2022/04/25 00:17:54;;;;;;;;;;;;;;;10.44;68.14;91629.88;2055488;69;20106;-68
2022/04/25 00:20:19;;;;;;;;;;;;;;;10.36;68.01;91632.34;2055235;69;20090;-69
2022/04/25 00:22:46;;;;;;;;;;;;;;;10.24;69.06;91629.72;2068473;69;20050;-69
2022/04/25 00:25:12;;;;;;;;;;;;;;;10.13;70.12;91631.34;2055199;69;20489;-68
2022/04/25 00:27:37;;;;;;;;;;;;;;;10.21;69.39;91630.22;2055656;70;20052;-70
2022/04/25 00:30:04;;;;;;;;;;;;;;;10.23;69.87;91642.31;2055584;70;20043;-68
2022/04/25 00:32:29;;;;;;;;;;;;;;;10.32;67.85;91630.09;2055677;69;20053;-68
2022/04/25 00:34:54;;;;;;;;;;;;;;;10.18;68.55;91630.16;2055342;70;20066;-68
2022/04/25 00:37:20;;;;;;;;;;;;;;;10.27;69.06;91633.38;2055503;70;20137;-68
2022/04/25 00:39:45;;;;;;;;;;;;;;;10.28;68.73;91640.44;2055642;70;20046;-68
2022/04/25 00:42:11;;;;;;;;;;;;;;;10.28;69.16;91640.44;2055440;70;20393;-68
2022/04/25 00:44:37;;;;;;;;;;;;;;;10.30;69.49;91640.50;2054997;70;20123;-68
2022/04/25 00:47:03;;;;;;;;;;;;;;;10.29;68.87;91636.25;2055470;70;20451;-68
2022/04/25 00:49:28;;;;;;;;;;;;;;;10.25;69.63;91628.34;2055417;69;20050;-69
2022/04/25 00:51:54;;;;;;;;;;;;;;;10.14;69.84;91638.41;2055297;69;20460;-69
2022/04/25 00:54:20;;;;;;;;;;;;;;;10.24;68.82;91638.16;2068255;69;20088;-68
2022/04/25 00:56:48;;;;;;;;;;;;;;;10.20;68.94;91632.31;2068667;69;20138;-70
2022/04/25 00:59:15;;;;;;;;;;;;;;;10.20;68.94;91629.50;2055492;70;20065;-69
2022/04/25 01:01:40;;;;;;;;;;;;;;;10.20;69.34;91632.31;2055375;69;20150;-69
2022/04/25 01:04:06;;;;;;;;;;;;;;;10.21;69.25;91630.22;2055471;69;20096;-69
2022/04/25 01:06:32;;;;;;;;;;;;;;;10.30;68.33;91623.63;2055678;70;20058;-68
2022/04/25 01:08:57;;;;;;;;;;;;;;;10.29;68.44;91627.81;2055229;70;20111;-68
2022/04/25 01:11:23;;;;;;;;;;;;;;;10.22;68.40;91624.00;2055362;69;20156;-68
2022/04/25 01:13:49;;;;;;;;;;;;;;;10.25;69.14;91639.59;2068242;69;20051;-68
2022/04/25 01:16:15;;;;;;;;;;;;;;;10.20;68.91;91635.13;2055136;69;20078;-69
2022/04/25 01:18:41;;;;;;;;;;;;;;;10.30;68.40;91629.25;2055262;70;20090;-68
2022/04/25 01:21:08;;;;;;;;;;;;;;;10.31;68.20;91636.34;2055068;70;20097;-69
2022/04/25 01:29:02;;;;;;;;;;;;;;;10.33;64.58;91625.19;2055163;70;20098;-69
2022/04/25 01:31:28;;;;;;;;;;;;;;;10.34;65.69;91627.34;2055358;69;20151;-68
2022/04/25 01:33:53;;;;;;;;;;;;;;;10.16;67.96;91626.50;2055152;70;20055;-69
2022/04/25 01:36:23;;;;;;;;;;;;;;;10.16;68.92;91626.50;2068279;69;20069;-70
2022/04/25 01:38:49;;;;;;;;;;;;;;;10.12;68.78;91632.66;2068045;69;20101;-69
2022/04/25 01:41:15;;;;;;;;;;;;;;;10.00;69.24;91626.50;2055073;69;20050;-68
2022/04/25 01:43:40;;;;;;;;;;;;;;;10.03;67.38;91627.31;2055127;69;20050;-68
2022/04/25 01:46:06;;;;;;;;;;;;;;;9.95;69.31;91621.34;2055068;70;20131;-68
2022/04/25 01:48:31;;;;;;;;;;;;;;;9.98;69.17;91620.78;2055358;70;20474;-68
2022/04/25 01:50:57;;;;;;;;;;;;;;;9.93;70.13;91631.13;2055368;70;20042;-67
2022/04/25 01:53:22;;;;;;;;;;;;;;;9.97;70.17;91630.59;2055173;69;20072;-67
2022/04/25 01:55:47;;;;;;;;;;;;;;;9.87;69.98;91625.22;2068274;69;20441;-68
2022/04/25 01:58:13;;;;;;;;;;;;;;;9.83;69.99;91625.03;2055356;70;20050;-69
2022/04/25 02:00:39;;;;;;;;;;;;;;;9.86;69.95;91629.41;2055167;70;20050;-68
2022/04/25 02:03:05;;;;;;;;;;;;;;;9.86;68.17;91629.41;2055537;70;20484;-67
2022/04/25 02:05:30;;;;;;;;;;;;;;;9.86;69.40;91629.41;2055628;69;20412;-69
2022/04/25 02:07:56;;;;;;;;;;;;;;;9.84;69.26;91634.19;2055492;70;20046;-69
2022/04/25 02:10:21;;;;;;;;;;;;;;;9.97;68.42;91639.03;2055297;70;20059;-68
2022/04/25 02:12:47;;;;;;;;;;;;;;;9.86;69.65;91643.47;2055812;70;20061;-69
2022/04/25 02:15:13;;;;;;;;;;;;;;;9.96;68.57;91637.56;2055521;70;20057;-68
2022/04/25 02:17:39;;;;;;;;;;;;;;;9.86;69.46;91645.53;2055458;69;20053;-68
2022/04/25 02:20:05;;;;;;;;;;;;;;;9.87;70.02;91650.53;2055355;69;20069;-68
2022/04/25 02:22:30;;;;;;;;;;;;;;;9.91;70.07;91653.53;2055374;69;20428;-68
2022/04/25 02:24:55;;;;;;;;;;;;;;;9.89;70.16;91647.78;2055451;69;20050;-68
2022/04/25 02:27:21;;;;;;;;;;;;;;;9.82;70.64;91654.50;2055551;70;20046;-68
2022/04/25 02:29:48;;;;;;;;;;;;;;;9.84;70.17;91653.88;2055435;70;20050;-68
2022/04/25 02:32:13;;;;;;;;;;;;;;;9.86;70.01;91657.50;2055053;69;20047;-70
2022/04/25 02:34:39;;;;;;;;;;;;;;;9.86;68.31;91651.88;2068032;69;20072;-67
2022/04/25 02:37:06;;;;;;;;;;;;;;;9.80;69.89;91648.06;2054951;70;20070;-68
2022/04/25 02:39:32;;;;;;;;;;;;;;;9.81;70.47;91660.78;2055240;69;20123;-68
2022/04/25 02:41:57;;;;;;;;;;;;;;;9.87;69.79;91656.16;2055265;69;20046;-69
2022/04/25 02:44:23;;;;;;;;;;;;;;;9.81;70.87;91658.69;2055031;70;20145;-70
2022/04/25 02:46:48;;;;;;;;;;;;;;;9.73;71.58;91657.56;2055195;69;20046;-69
2022/04/25 02:49:14;;;;;;;;;;;;;;;9.83;70.18;91660.84;2055107;69;20468;-68
2022/04/25 02:51:39;;;;;;;;;;;;;;;9.91;69.76;91659.16;2055088;70;20054;-70
2022/04/25 02:54:05;;;;;;;;;;;;;;;9.97;69.79;91657.97;2068277;69;20050;-68
2022/04/25 02:56:31;;;;;;;;;;;;;;;9.89;70.48;91661.84;2055127;69;20046;-69
2022/04/25 02:58:56;;;;;;;;;;;;;;;9.81;70.69;91660.78;2055060;70;20138;-70
2022/04/25 03:01:22;;;;;;;;;;;;;;;9.94;70.41;91665.56;2068242;69;20081;-68
2022/04/25 03:03:47;;;;;;;;;;;;;;;9.97;70.29;91661.50;2068199;69;20054;-68
2022/04/25 03:06:13;;;;;;;;;;;;;;;10.02;69.25;91671.56;2055031;70;20153;-68
2022/04/25 03:08:39;;;;;;;;;;;;;;;10.04;68.83;91676.59;2055416;70;20054;-68
2022/04/25 03:11:05;;;;;;;;;;;;;;;10.10;68.24;91666.34;2055255;70;20069;-69
2022/04/25 03:13:31;;;;;;;;;;;;;;;10.16;66.18;91669.41;2068325;69;20064;-69
2022/04/25 03:15:57;;;;;;;;;;;;;;;10.04;68.17;91680.13;2055665;70;20083;-68
2022/04/25 03:18:22;;;;;;;;;;;;;;;9.98;70.39;91676.28;2055563;70;20491;-67
2022/04/25 03:20:49;;;;;;;;;;;;;;;9.98;70.58;91676.28;2055419;69;20082;-68
2022/04/25 03:23:15;;;;;;;;;;;;;;;10.02;69.14;91674.41;2055528;70;20093;-69
2022/04/25 03:25:40;;;;;;;;;;;;;;;10.16;67.92;91674.31;2055570;70;20488;-68
2022/04/25 03:28:06;;;;;;;;;;;;;;;10.03;70.02;91675.84;2068677;69;20570;-68
2022/04/25 03:30:32;;;;;;;;;;;;;;;9.97;69.26;91681.19;2055256;70;20050;-69
2022/04/25 03:32:58;;;;;;;;;;;;;;;10.10;68.61;91671.25;2056169;69;20146;-68
2022/04/25 03:35:24;;;;;;;;;;;;;;;10.04;69.78;91676.59;2055934;70;20054;-69
2022/04/25 03:37:50;;;;;;;;;;;;;;;9.94;70.78;91685.25;2055859;69;20173;-70
2022/04/25 03:40:16;;;;;;;;;;;;;;;9.95;70.86;91678.28;2055957;69;20477;-69
2022/04/25 03:42:45;;;;;;;;;;;;;;;10.02;68.78;91696.16;2056046;69;20058;-70
2022/04/25 03:45:12;;;;;;;;;;;;;;;10.05;69.60;91694.91;2055940;70;20061;-70
2022/04/25 03:47:38;;;;;;;;;;;;;;;10.01;70.03;91691.91;2056054;70;20495;-71
2022/04/25 03:50:05;;;;;;;;;;;;;;;10.03;69.82;91689.19;2056050;70;20584;-69
2022/04/25 03:52:30;;;;;;;;;;;;;;;9.80;71.69;91696.56;2055895;70;20440;-70
2022/04/25 03:57:39;;;;;;;;;;;;;;;9.78;71.37;91698.56;2055989;70;20054;-69
2022/04/25 04:00:06;;;;;;;;;;;;;;;9.88;68.72;91696.94;2055899;70;20485;-68
2022/04/25 04:02:37;;;;;;;;;;;;;;;10.00;67.95;91707.31;2055914;70;20082;-69
2022/04/25 04:05:03;;;;;;;;;;;;;;;9.97;70.55;91700.88;2055962;69;20082;-69
2022/04/25 04:07:29;;;;;;;;;;;;;;;9.95;71.19;91705.69;2055851;70;20472;-69
2022/04/25 04:09:54;;;;;;;;;;;;;;;9.98;70.92;91710.75;2055755;69;20074;-68
2022/04/25 04:12:20;;;;;;;;;;;;;;;9.97;69.96;91717.00;2055849;69;20485;-68
2022/04/25 04:14:46;;;;;;;;;;;;;;;9.68;71.99;91713.59;2055834;69;20054;-68
2022/04/25 04:17:12;;;;;;;;;;;;;;;10.01;70.09;91717.22;2055870;69;20046;-69
2022/04/25 04:19:38;;;;;;;;;;;;;;;10.09;70.06;91717.59;2055844;69;20224;-69
2022/04/25 04:22:04;;;;;;;;;;;;;;;10.04;70.84;91721.56;2055707;70;20149;-69
2022/04/25 04:24:31;;;;;;;;;;;;;;;10.06;71.31;91727.28;2068643;69;20053;-69
2022/04/25 04:27:01;;;;;;;;;;;;;;;10.04;71.17;91733.53;2055720;70;20042;-68
2022/04/25 04:29:29;;;;;;;;;;;;;;;10.07;70.70;91737.88;2055928;70;20050;-70
2022/04/25 04:31:58;;;;;;;;;;;;;;;10.13;69.98;91741.00;2055821;69;20058;-70
2022/04/25 04:34:24;;;;;;;;;;;;;;;10.05;71.38;91739.91;2055797;69;20120;-69
2022/04/25 04:36:50;;;;;;;;;;;;;;;10.04;71.08;91749.69;2055925;70;20141;-68
2022/04/25 04:39:16;;;;;;;;;;;;;;;10.09;70.66;91743.63;2055753;69;20062;-69
2022/04/25 04:41:41;;;;;;;;;;;;;;;10.18;69.87;91753.91;2055925;69;20050;-69
2022/04/25 04:44:07;;;;;;;;;;;;;;;10.16;70.56;91753.06;2055769;70;20115;-70
2022/04/25 04:46:32;;;;;;;;;;;;;;;10.05;70.66;91745.53;2068796;69;20115;-71
2022/04/25 04:48:58;;;;;;;;;;;;;;;10.06;72.47;91750.50;2055905;69;20046;-70
2022/04/25 04:51:23;;;;;;;;;;;;;;;10.17;70.45;91758.06;2055897;70;20491;-68
2022/04/25 04:53:49;;;;;;;;;;;;;;;10.20;68.98;91750.44;2055669;69;20050;-69
2022/04/25 04:56:14;;;;;;;;;;;;;;;10.00;71.59;91764.28;2055799;70;20069;-69
2022/04/25 04:58:40;;;;;;;;;;;;;;;9.98;71.91;91769.78;2049791;69;20054;-69
2022/04/25 05:01:05;;;;;;;;;;;;;;;10.08;71.40;91770.28;2055726;70;20159;-70
2022/04/25 05:03:31;;;;;;;;;;;;;;;10.25;68.87;91771.81;2055893;69;20163;-69
2022/04/25 05:05:56;;;;;;;;;;;;;;;10.34;70.64;91778.53;2055744;69;20557;-69
2022/04/25 05:08:22;;;;;;;;;;;;;;;10.33;71.13;91777.09;2055636;70;20454;-69
2022/04/25 05:10:48;;;;;;;;;;;;;;;10.22;71.20;91787.13;2068664;69;20073;-69
2022/04/25 05:13:15;;;;;;;;;;;;;;;10.30;68.48;91787.50;2055650;70;20059;-69
2022/04/25 05:15:40;;;;;;;;;;;;;;;10.11;71.42;91793.59;2055844;69;20053;-69
2022/04/25 05:18:06;;;;;;;;;;;;;;;10.31;69.30;91796.66;2055717;69;20046;-68
2022/04/25 05:20:31;;;;;;;;;;;;;;;10.32;70.57;91804.50;2055831;70;20417;-68
2022/04/25 05:22:57;;;;;;;;;;;;;;;10.37;70.12;91808.22;2055637;70;20047;-68
2022/04/25 05:25:23;;;;;;;;;;;;;;;10.53;69.36;91813.88;2055713;69;20057;-70
2022/04/25 05:27:52;;;;;;;;;;;;;;;10.53;71.05;91817.41;2055721;70;20050;-69
2022/04/25 05:30:19;;;;;;;;;;;;;;;10.59;70.83;91820.53;2055442;70;20575;-70
2022/04/25 05:32:48;;;;;;;;;;;;;;;10.62;70.29;91807.25;2055609;69;20073;-69
2022/04/25 05:35:14;;;;;;;;;;;;;;;10.60;70.64;91819.16;2055559;70;20146;-69
2022/04/25 05:37:40;;;;;;;;;;;;;;;10.65;70.70;91820.81;2055818;70;20442;-69
2022/04/25 05:40:06;;;;;;;;;;;;;;;10.34;71.61;91832.72;2055581;70;20057;-69
2022/04/25 05:42:32;;;;;;;;;;;;;;;10.37;69.48;91836.34;2055675;69;20181;-68
2022/04/25 05:44:58;;;;;;;;;;;;;;;10.62;70.67;91833.31;2055785;69;20061;-70
2022/04/25 05:47:23;;;;;;;;;;;;;;;10.42;72.43;91830.28;2055797;69;20214;-68
2022/04/25 05:52:33;;;;;;;;;;;;;;;10.89;69.97;91828.91;2055752;70;20149;-69
2022/04/25 05:54:59;;;;;;;;;;;;;;;10.97;69.56;91837.00;2068603;69;20149;-69
2022/04/25 05:57:25;;;;;;;;;;;;;;;11.08;67.89;91836.81;2055637;70;20076;-68
2022/04/25 05:59:50;;;;;;;;;;;;;;;11.11;66.96;91844.00;2055643;69;20062;-68
2022/04/25 06:02:17;;;;;;;;;;;;;;;11.13;69.74;91854.63;2055744;70;20554;-69
2022/04/25 06:04:42;;;;;;;;;;;;;;;11.10;69.81;91853.09;2055754;70;20051;-70
2022/04/25 06:07:08;;;;;;;;;;;;;;;11.03;70.38;91854.88;2068591;69;20061;-70
2022/04/25 06:09:34;;;;;;;;;;;;;;;11.10;68.32;91861.53;2055571;69;20050;-70
2022/04/25 06:12:00;;;;;;;;;;;;;;;11.19;67.66;91860.53;2055637;69;20062;-70
2022/04/25 06:14:27;;;;;;;;;;;;;;;11.15;70.50;91863.19;2068610;69;20054;-70
2022/04/25 06:16:52;;;;;;;;;;;;;;;11.24;69.05;91865.00;2068632;69;20059;-69
2022/04/25 06:19:18;;;;;;;;;;;;;;;11.23;68.10;91872.00;2068608;69;20424;-70
2022/04/25 06:21:43;;;;;;;;;;;;;;;11.28;64.72;91873.63;2055536;70;20057;-71
2022/04/25 06:24:09;;;;;;;;;;;;;;;10.82;71.87;91875.06;2068461;69;20050;-71
2022/04/25 06:26:36;;;;;;;;;;;;;;;10.87;71.23;91871.06;2055612;69;20078;-70
2022/04/25 06:29:02;;;;;;;;;;;;;;;11.04;69.36;91867.63;2055628;70;20162;-71
2022/04/25 06:31:27;;;;;;;;;;;;;;;11.40;67.56;91865.69;2055671;69;20082;-71
2022/04/25 06:33:53;;;;;;;;;;;;;;;11.59;67.64;91872.91;2055588;70;20054;-70
2022/04/25 06:36:19;;;;;;;;;;;;;;;11.69;66.93;91878.25;2055544;70;20054;-70
2022/04/25 06:38:44;;;;;;;;;;;;;;;11.78;66.79;91882.88;2055383;69;20070;-70
2022/04/25 06:41:09;;;;;;;;;;;;;;;11.84;67.92;91880.31;2055474;70;20057;-70
2022/04/25 06:43:36;;;;;;;;;;;;;;;11.97;65.60;91878.75;2068393;69;20444;-70
2022/04/25 06:46:02;;;;;;;;;;;;;;;12.03;63.11;91881.81;2068494;69;20116;-70
2022/04/25 06:48:28;;;;;;;;;;;;;;;11.91;66.52;91887.69;2055672;69;20475;-71
2022/04/25 06:50:55;;;;;;;;;;;;;;;11.98;63.25;91883.03;2055652;69;20111;-71
2022/04/25 06:53:21;;;;;;;;;;;;;;;11.98;65.50;91893.59;2055466;70;20113;-70
2022/04/25 06:55:46;;;;;;;;;;;;;;;11.69;68.00;91884.59;2068527;69;20164;-70
2022/04/25 06:58:12;;;;;;;;;;;;;;;12.02;64.06;91883.19;2055497;70;20155;-70
2022/04/25 07:00:38;;;;;;;;;;;;;;;12.15;61.28;91890.09;2055606;69;20054;-70
2022/04/25 07:03:04;;;;;;;;;;;;;;;12.13;63.94;91884.34;2055490;70;20062;-70
2022/04/25 07:05:29;;;;;;;;;;;;;;;12.39;63.51;91890.38;2068594;69;20428;-70
2022/04/25 07:07:55;;;;;;;;;;;;;;;12.57;63.00;91891.09;2055398;69;20078;-70
2022/04/25 07:10:20;;;;;;;;;;;;;;;12.41;63.82;91893.97;2055458;70;20082;-70
2022/04/25 07:12:46;;;;;;;;;;;;;;;12.52;63.33;91895.13;2065604;69;20126;-70
2022/04/25 07:15:11;;;;;;;;;;;;;;;12.66;63.80;91895.00;2055476;70;20059;-70
2022/04/25 07:17:37;;;;;;;;;;;;;;;12.74;65.05;91900.97;2055559;69;20066;-70
2022/04/25 07:20:03;;;;;;;;;;;;;;;12.82;62.72;91892.78;2055400;70;20416;-70
2022/04/25 07:30:40;;;;;;;;;;;;;;;12.70;57.10;91895.16;2055405;70;20058;-71
2022/04/25 07:33:05;;;;;;;;;;;;;;;12.78;58.76;91894.72;2055421;70;20061;-70
2022/04/25 07:35:31;;;;;;;;;;;;;;;12.60;60.43;91901.13;2055534;70;20046;-73
2022/04/25 07:37:57;;;;;;;;;;;;;;;12.71;59.05;91899.41;2068400;69;20543;-70
2022/04/25 07:40:23;;;;;;;;;;;;;;;13.05;57.51;91897.22;2055380;70;20093;-69
2022/04/25 07:42:48;;;;;;;;;;;;;;;12.93;57.36;91905.25;2055364;69;20049;-71
2022/04/25 07:45:13;;;;;;;;;;;;;;;13.04;57.30;91906.34;2068367;69;20054;-70
2022/04/25 07:47:42;;;;;;;;;;;;;;;13.03;59.86;91911.28;2055369;70;20062;-70
2022/04/25 07:50:09;;;;;;;;;;;;;;;13.32;57.00;91901.09;2068402;69;20058;-70
2022/04/25 07:52:34;;;;;;;;;;;;;;;13.19;58.45;91914.00;2055336;69;20436;-70
2022/04/25 07:55:00;;;;;;;;;;;;;;;13.22;58.36;91916.28;2068723;69;20080;-70
2022/04/25 07:57:25;;;;;;;;;;;;;;;13.69;55.59;91917.31;2055981;70;20058;-70
2022/04/25 07:59:51;;;;;;;;;;;;;;;13.65;57.15;91914.31;2055868;70;20115;-69
2022/04/25 08:02:19;;;;;;;;;;;;;;;13.61;57.19;91922.69;2055851;69;20089;-70
2022/04/25 08:04:48;;;;;;;;;;;;;;;13.63;56.56;91911.44;2068888;69;20050;-72
2022/04/25 08:07:13;;;;;;;;;;;;;;;13.71;56.26;91923.06;2055868;69;20043;-70
2022/04/25 08:09:39;;;;;;;;;;;;;;;14.02;54.62;91907.16;2055819;69;20043;-71
2022/04/25 08:20:17;;;;;;;;;;;;;;;13.88;54.09;91915.88;2056093;70;20489;-71
2022/04/25 08:22:42;;;;;;;;;;;;;;;14.19;53.03;91918.41;2055798;70;20043;-70
2022/04/25 08:25:10;;;;;;;;;;;;;;;14.11;54.20;91914.56;2055741;70;20042;-71
2022/04/25 08:27:35;;;;;;;;;;;;;;;14.51;53.36;91918.09;2055966;69;20070;-70
2022/04/25 08:30:01;;;;;;;;;;;;;;;14.84;55.36;91914.22;2055806;69;20424;-71
2022/04/25 08:32:26;;;;;;;;;;;;;;;14.97;51.35;91916.06;2055871;69;20424;-70
2022/04/25 08:34:52;;;;;;;;;;;;;;;15.30;50.70;91917.09;2055845;69;20062;-70
2022/04/25 08:37:17;;;;;;;;;;;;;;;15.55;50.24;91912.88;2055966;70;20053;-71
2022/04/25 08:39:42;;;;;;;;;;;;;;;15.51;50.04;91916.31;2055723;69;20054;-70
2022/04/25 08:42:09;;;;;;;;;;;;;;;15.83;50.40;91920.81;2055816;69;20062;-71
2022/04/25 08:44:34;;;;;;;;;;;;;;;16.29;49.33;91924.25;2068835;69;20472;-73
2022/04/25 08:47:01;;;;;;;;;;;;;;;16.10;49.16;91927.97;2055798;70;20146;-72
2022/04/25 08:49:27;;;;;;;;;;;;;;;16.02;48.46;91926.34;2055907;69;20042;-71
2022/04/25 08:51:58;;;;;;;;;;;;;;;16.18;47.27;91928.22;2055899;70;20057;-71
2022/04/25 08:54:31;;;;;;;;;;;;;;;15.96;49.27;91926.19;2068092;69;20500;-71
2022/04/25 08:56:57;;;;;;;;;;;;;;;15.87;47.93;91923.78;2055793;70;20058;-70
2022/04/25 08:59:23;;;;;;;;;;;;;;;16.88;48.59;91919.41;2055803;69;20058;-71
2022/04/25 09:01:49;;;;;;;;;;;;;;;17.23;47.11;91924.53;2055727;69;20050;-70
2022/04/25 09:04:14;;;;;;;;;;;;;;;16.89;47.53;91921.56;2055732;69;20050;-71
2022/04/25 09:06:40;;;;;;;;;;;;;;;17.13;44.93;91917.88;2055643;70;20150;-70
2022/04/25 09:09:06;;;;;;;;;;;;;;;16.85;46.86;91917.91;2055671;70;20082;-70
2022/04/25 09:14:16;;;;;;;;;;;;;;;17.14;46.48;91917.22;2068710;69;20105;-72
2022/04/25 09:16:42;;;;;;;;;;;;;;;17.52;45.37;91913.81;2055764;69;20057;-71
2022/04/25 09:19:07;;;;;;;;;;;;;;;18.09;44.76;91922.88;2068704;69;20090;-72
2022/04/25 09:21:43;;;;;;;;;;;;;;;18.66;44.41;91916.19;2055896;70;20078;-73
2022/04/25 09:24:21;;;;;;;;;;;;;;;18.56;43.20;91924.53;2068611;69;20146;-72
2022/04/25 09:26:52;;;;;;;;;;;;;;;19.00;41.43;91924.63;2055692;70;20065;-75
2022/04/25 09:29:27;;;;;;;;;;;;;;;18.32;41.96;91916.22;2068742;69;20062;-75
2022/04/25 09:31:53;;;;;;;;;;;;;;;17.15;43.50;91915.81;2055702;69;20058;-74
2022/04/25 09:34:59;;;;;;;;;;;;;;;18.42;44.25;91913.59;2068772;69;20054;-73
2022/04/25 09:37:06;;;;;;;;;;;;;;;19.30;42.67;91907.31;2055699;69;20129;-73
2022/04/25 09:39:32;;;;;;;;;;;;;;;19.86;43.29;91917.44;2068614;69;20061;-72
2022/04/25 09:41:57;;;;;;;;;;;;;;;20.20;42.40;91913.59;2068591;69;20050;-72
2022/04/25 09:44:23;;;;;;;;;;;;;;;20.40;41.38;91910.28;2068663;69;20096;-72
2022/04/25 09:46:49;;;;;;;;;;;;;;;19.80;38.58;91908.81;2068546;69;20133;-73
2022/04/25 09:49:20;;;;;;;;;;;;;;;19.94;38.91;91909.00;2055690;69;20070;-73
2022/04/25 09:52:02;;;;;;;;;;;;;;;19.26;40.01;91906.53;2055662;70;20142;-72
2022/04/25 09:54:27;;;;;;;;;;;;;;;19.79;40.77;91901.63;2055567;69;20104;-71
2022/04/25 09:56:53;;;;;;;;;;;;;;;19.22;41.28;91895.06;2055902;69;20050;-74
2022/04/25 09:59:21;;;;;;;;;;;;;;;19.14;39.70;91898.50;2068769;69;20054;-74
2022/04/25 10:02:00;;;;;;;;;;;;;;;19.82;38.50;91899.53;2068069;69;20158;-70
2022/04/25 10:04:32;;;;;;;;;;;;;;;20.13;37.48;91895.66;2055392;70;20143;-70
2022/04/25 10:07:03;;;;;;;;;;;;;;;20.34;37.88;91898.75;2068546;69;20506;-70
2022/04/25 10:09:29;;;;;;;;;;;;;;;20.89;37.26;91896.53;2055312;70;20050;-70
2022/04/25 10:11:57;;;;;;;;;;;;;;;20.81;37.70;91889.31;2055581;69;20116;-70
2022/04/25 10:14:22;;;;;;;;;;;;;;;20.97;37.24;91894.47;2055544;69;20088;-71
2022/04/25 10:16:48;;;;;;;;;;;;;;;20.03;38.59;91901.25;2052349;69;20471;-70
2022/04/25 10:19:14;;;;;;;;;;;;;;;20.75;37.78;91909.25;2052179;70;20133;-71
2022/04/25 10:21:40;;;;;;;;;;;;;;;21.22;37.36;91898.28;2048871;69;20054;-71
2022/04/25 10:24:07;;;;;;;;;;;;;;;20.60;35.61;91901.97;2052109;70;20084;-70
2022/04/25 10:26:32;;;;;;;;;;;;;;;19.68;37.46;91897.91;2052524;70;20047;-71
2022/04/25 10:29:02;;;;;;;;;;;;;;;20.56;36.67;91902.63;2049022;70;20053;-70
2022/04/25 10:31:30;;;;;;;;;;;;;;;18.53;39.52;91892.44;2052129;70;20062;-73
2022/04/25 10:34:00;;;;;;;;;;;;;;;19.75;38.74;91887.31;2052271;70;20074;-69
2022/04/25 10:36:46;;;;;;;;;;;;;;;19.94;38.35;91896.84;2052272;69;20528;-68
2022/04/25 10:39:13;;;;;;;;;;;;;;;20.97;37.06;91890.88;2052034;70;20051;-68
2022/04/25 10:44:25;;;;;;;;;;;;;;;22.08;36.35;91891.03;2052182;70;20146;-69
2022/04/25 10:47:05;;;;;;;;;;;;;;;23.43;34.54;91890.72;2052169;70;20169;-68
2022/04/25 10:49:34;;;;;;;;;;;;;;;22.66;33.98;91891.28;2052246;70;20051;-69
2022/04/25 10:52:00;;;;;;;;;;;;;;;20.85;35.59;91882.94;2052197;70;20112;-70
2022/04/25 10:54:29;;;;;;;;;;;;;;;21.77;34.81;91889.41;2052086;70;20073;-69
2022/04/25 10:57:06;;;;;;;;;;;;;;;23.59;33.20;91882.84;2052205;70;20047;-68
2022/04/25 10:59:32;;;;;;;;;;;;;;;25.53;30.77;91893.63;2052119;70;20120;-68
2022/04/25 11:01:57;;;;;;;;;;;;;;;26.92;26.71;91886.44;2052169;70;20118;-68
2022/04/25 11:04:23;;;;;;;;;;;;;;;24.19;30.49;91891.34;2052219;70;20047;-68
2022/04/25 11:07:08;;;;;;;;;;;;;;;25.41;29.63;91887.94;2052157;70;20051;-68
2022/04/25 11:09:41;;;;;;;;;;;;;;;26.03;27.01;91885.28;2052000;70;20047;-70
2022/04/25 11:12:07;;;;;;;;;;;;;;;25.51;27.27;91882.09;2052153;70;20057;-69
2022/04/25 11:14:33;;;;;;;;;;;;;;;25.32;27.43;91889.44;2052154;70;20550;-67
2022/04/25 11:17:06;;;;;;;;;;;;;;;26.11;27.65;91890.97;2048891;70;20573;-69
2022/04/25 11:19:45;;;;;;;;;;;;;;;27.02;27.65;91885.59;2052265;70;20073;-74
2022/04/25 11:22:29;;;;;;;;;;;;;;;26.69;26.32;91888.19;2048884;70;20500;-73
2022/04/25 11:24:55;;;;;;;;;;;;;;;30.69;23.07;91898.56;2052018;70;20047;-71
2022/04/25 11:27:21;;;;;;;;;;;;;;;31.33;21.79;91891.72;2051993;70;20047;-73
2022/04/25 11:30:07;;;;;;;;;;;;;;;31.27;20.01;91898.44;2052526;70;20058;-72
2022/04/25 11:32:37;;;;;;;;;;;;;;;29.88;21.63;91883.97;2052553;70;20144;-73
2022/04/25 11:35:03;;;;;;;;;;;;;;;29.50;23.35;91894.97;2052735;70;20149;-74
2022/04/25 11:37:30;;;;;;;;;;;;;;;25.66;26.83;91884.84;2049251;70;20055;-74
2022/04/25 11:39:57;;;;;;;;;;;;;;;25.04;26.67;91879.50;2052576;70;20078;-77
2022/04/25 11:42:25;;;;;;;;;;;;;;;26.02;25.25;91878.78;2049324;69;20046;-73
2022/04/25 11:44:50;;;;;;;;;;;;;;;26.54;24.86;91881.88;2052578;70;20050;-72
2022/04/25 11:47:18;;;;;;;;;;;;;;;26.32;25.84;91885.69;2052692;70;20142;-69
2022/04/25 11:49:43;;;;;;;;;;;;;;;27.41;24.22;91882.91;2052569;70;20401;-69
2022/04/25 11:52:15;;;;;;;;;;;;;;;25.56;25.23;91888.53;2049332;70;20477;-70
2022/04/25 11:54:41;;;;;;;;;;;;;;;24.58;26.64;91886.94;2049052;70;20146;-70
2022/04/25 11:57:07;;;;;;;;;;;;;;;23.19;29.22;91874.22;2049069;70;20500;-72
2022/04/25 11:59:32;;;;;;;;;;;;;;;23.37;28.68;91876.34;2046054;70;20052;-71
2022/04/25 12:01:58;;;;;;;;;;;;;;;24.07;28.35;91875.59;2052342;70;20047;-73
2022/04/25 12:04:23;;;;;;;;;;;;;;;25.95;26.50;91877.44;2052443;69;20108;-70
2022/04/25 12:06:49;;;;;;;;;;;;;;;26.03;25.86;91874.47;2052507;70;20116;-69
2022/04/25 12:17:42;;;;;;;;;;;;;;;24.14;27.62;91870.53;2052572;70;20047;-72
2022/04/25 12:20:10;;;;;;;;;;;;;;;23.39;26.86;91856.97;2052202;70;20447;-71
2022/04/25 12:22:36;;;;;;;;;;;;;;;21.67;29.96;91854.97;2052292;70;20567;-70
2022/04/25 12:25:12;;;;;;;;;;;;;;;23.46;27.76;91849.06;2049188;69;20190;-73
2022/04/25 12:27:38;;;;;;;;;;;;;;;21.86;30.24;91838.63;2052656;70;20078;-76
2022/04/25 12:30:07;;;;;;;;;;;;;;;21.81;28.75;91837.88;2052659;69;20089;-72
2022/04/25 12:32:32;;;;;;;;;;;;;;;22.22;30.73;91838.81;2052652;69;20058;-71
2022/04/25 12:34:58;;;;;;;;;;;;;;;21.39;30.53;91841.88;2052822;69;20090;-71
2022/04/25 12:37:23;;;;;;;;;;;;;;;21.81;30.06;91835.00;2049485;69;20499;-71
2022/04/25 12:40:02;;;;;;;;;;;;;;;23.51;28.36;91842.63;2052305;69;20082;-71
2022/04/25 12:42:43;;;;;;;;;;;;;;;23.29;28.97;91842.63;2052729;70;20057;-72
2022/04/25 12:45:09;;;;;;;;;;;;;;;22.67;29.09;91829.59;2052553;70;20059;-69
2022/04/25 12:47:34;;;;;;;;;;;;;;;23.33;28.55;91837.59;2052582;70;20416;-75
2022/04/25 12:50:01;;;;;;;;;;;;;;;22.24;28.35;91823.75;2052575;70;20073;-74
2022/04/25 12:52:27;;;;;;;;;;;;;;;22.30;29.46;91821.63;2052587;70;20158;-70
2022/04/25 12:54:54;;;;;;;;;;;;;;;21.52;28.64;91834.09;2052546;70;20197;-74
2022/04/25 12:57:21;;;;;;;;;;;;;;;21.34;29.84;91823.25;2052404;70;20570;-71
2022/04/25 12:59:52;;;;;;;;;;;;;;;20.36;30.08;91825.22;2052656;69;20070;-70
2022/04/25 13:02:19;;;;;;;;;;;;;;;20.45;31.41;91823.16;2052616;70;20047;-71
2022/04/25 13:04:52;;;;;;;;;;;;;;;20.81;30.55;91825.69;2049490;70;20046;-72
2022/04/25 13:07:19;;;;;;;;;;;;;;;21.75;31.20;91826.38;2052543;70;20043;-72
2022/04/25 13:09:44;;;;;;;;;;;;;;;21.66;29.33;91822.03;2052484;69;20054;-70
2022/04/25 13:12:14;;;;;;;;;;;;;;;20.40;30.57;91822.41;2052477;70;20222;-72
2022/04/25 13:14:39;;;;;;;;;;;;;;;20.72;30.87;91822.03;2052522;70;20636;-73
2022/04/25 13:17:06;;;;;;;;;;;;;;;20.42;31.06;91821.69;2052607;70;20059;-72
2022/04/25 13:19:32;;;;;;;;;;;;;;;20.19;31.09;91810.00;2052747;70;20054;-70
2022/04/25 13:21:57;;;;;;;;;;;;;;;20.81;31.55;91814.25;2052533;70;20053;-71
2022/04/25 13:24:23;;;;;;;;;;;;;;;20.01;31.97;91824.09;2052409;70;20548;-70
2022/04/25 13:26:48;;;;;;;;;;;;;;;20.43;31.34;91820.25;2052499;70;20047;-70